Terminal Aerodrome Forecast
Issued by NWS

Home | Current Version | Previous Version | Text Only | Print | Product List | Glossary On
Versions: 1 2 3 4 5 6 7 8 9 10 11 12 13 14 15 16 17 18 19 20 21 22 23 24 25 26
000
FTUS46 KPDT 301700
TAFRDM
TAF
KRDM 301739Z 3018/3118 VRB03KT 5SM BR OVC003
     FM301900 35005KT P6SM OVC008
     FM302200 34005KT P6SM SCT018
     FM310400 16004KT P6SM SKC
     FM311000 15003KT 6SM BR SCT005 SCT150=

USA.gov is the U.S. government's official web portal to all federal, state and local government web resources and services.